sensor_id;sensor_type;location;lat;lon;timestamp;P1;durP1;ratioP1;P2;durP2;ratioP2
14400;SDS011;7285;50.894;5.462;2022-08-21T00:01:06;0.43;;;0.43;;
14400;SDS011;7285;50.894;5.462;2022-08-21T00:03:39;0.40;;;0.40;;
14400;SDS011;7285;50.894;5.462;2022-08-21T00:06:06;0.40;;;0.40;;
14400;SDS011;7285;50.894;5.462;2022-08-21T00:08:33;0.50;;;0.50;;
14400;SDS011;7285;50.894;5.462;2022-08-21T00:11:03;0.47;;;0.47;;
14400;SDS011;7285;50.894;5.462;2022-08-21T00:13:30;0.40;;;0.40;;
14400;SDS011;7285;50.894;5.462;2022-08-21T00:15:58;0.50;;;0.50;;
14400;SDS011;7285;50.894;5.462;2022-08-21T00:18:25;0.50;;;0.50;;
14400;SDS011;7285;50.894;5.462;2022-08-21T00:20:52;0.50;;;0.50;;
14400;SDS011;7285;50.894;5.462;2022-08-21T00:23:19;0.50;;;0.50;;
14400;SDS011;7285;50.894;5.462;2022-08-21T00:25:46;0.40;;;0.40;;
14400;SDS011;7285;50.894;5.462;2022-08-21T00:28:16;0.43;;;0.43;;
14400;SDS011;7285;50.894;5.462;2022-08-21T00:30:43;0.50;;;0.50;;
14400;SDS011;7285;50.894;5.462;2022-08-21T00:33:11;0.50;;;0.50;;
14400;SDS011;7285;50.894;5.462;2022-08-21T00:35:39;0.40;;;0.40;;
14400;SDS011;7285;50.894;5.462;2022-08-21T00:38:07;0.50;;;0.50;;
14400;SDS011;7285;50.894;5.462;2022-08-21T00:40:36;0.43;;;0.43;;
14400;SDS011;7285;50.894;5.462;2022-08-21T00:43:07;0.40;;;0.40;;
14400;SDS011;7285;50.894;5.462;2022-08-21T00:45:37;0.50;;;0.50;;
14400;SDS011;7285;50.894;5.462;2022-08-21T00:48:05;0.50;;;0.50;;
14400;SDS011;7285;50.894;5.462;2022-08-21T00:50:33;0.60;;;0.60;;
14400;SDS011;7285;50.894;5.462;2022-08-21T00:53:04;0.50;;;0.50;;
14400;SDS011;7285;50.894;5.462;2022-08-21T00:55:34;0.50;;;0.50;;
14400;SDS011;7285;50.894;5.462;2022-08-21T00:58:02;0.60;;;0.60;;
14400;SDS011;7285;50.894;5.462;2022-08-21T01:00:33;0.50;;;0.50;;
14400;SDS011;7285;50.894;5.462;2022-08-21T01:03:06;0.50;;;0.50;;
14400;SDS011;7285;50.894;5.462;2022-08-21T01:05:36;0.50;;;0.50;;
14400;SDS011;7285;50.894;5.462;2022-08-21T01:08:04;0.50;;;0.50;;
14400;SDS011;7285;50.894;5.462;2022-08-21T01:10:32;0.80;;;0.80;;
14400;SDS011;7285;50.894;5.462;2022-08-21T01:13:00;0.50;;;0.50;;
14400;SDS011;7285;50.894;5.462;2022-08-21T01:15:29;0.40;;;0.40;;
14400;SDS011;7285;50.894;5.462;2022-08-21T01:17:59;0.50;;;0.50;;
14400;SDS011;7285;50.894;5.462;2022-08-21T01:20:28;0.50;;;0.50;;
14400;SDS011;7285;50.894;5.462;2022-08-21T01:22:57;0.60;;;0.60;;
14400;SDS011;7285;50.894;5.462;2022-08-21T01:25:23;0.50;;;0.50;;
14400;SDS011;7285;50.894;5.462;2022-08-21T01:27:50;0.70;;;0.70;;
14400;SDS011;7285;50.894;5.462;2022-08-21T01:30:18;0.53;;;0.53;;
14400;SDS011;7285;50.894;5.462;2022-08-21T01:32:48;0.60;;;0.60;;
14400;SDS011;7285;50.894;5.462;2022-08-21T01:35:16;0.60;;;0.60;;
14400;SDS011;7285;50.894;5.462;2022-08-21T01:37:44;0.50;;;0.50;;
14400;SDS011;7285;50.894;5.462;2022-08-21T01:40:14;0.50;;;0.50;;
14400;SDS011;7285;50.894;5.462;2022-08-21T01:42:43;0.60;;;0.60;;
14400;SDS011;7285;50.894;5.462;2022-08-21T01:45:11;0.50;;;0.50;;
14400;SDS011;7285;50.894;5.462;2022-08-21T01:47:40;0.60;;;0.60;;
14400;SDS011;7285;50.894;5.462;2022-08-21T01:50:09;0.50;;;0.50;;
14400;SDS011;7285;50.894;5.462;2022-08-21T01:52:38;0.60;;;0.60;;
14400;SDS011;7285;50.894;5.462;2022-08-21T01:55:07;0.70;;;0.70;;
14400;SDS011;7285;50.894;5.462;2022-08-21T01:57:36;0.53;;;0.53;;
14400;SDS011;7285;50.894;5.462;2022-08-21T02:00:03;0.50;;;0.50;;
14400;SDS011;7285;50.894;5.462;2022-08-21T02:02:31;0.50;;;0.50;;
14400;SDS011;7285;50.894;5.462;2022-08-21T02:04:58;0.70;;;0.70;;
14400;SDS011;7285;50.894;5.462;2022-08-21T02:07:25;0.77;;;0.77;;
14400;SDS011;7285;50.894;5.462;2022-08-21T02:09:52;0.60;;;0.60;;
14400;SDS011;7285;50.894;5.462;2022-08-21T02:12:19;0.60;;;0.60;;
14400;SDS011;7285;50.894;5.462;2022-08-21T02:14:47;0.60;;;0.60;;
14400;SDS011;7285;50.894;5.462;2022-08-21T02:17:14;0.53;;;0.53;;
14400;SDS011;7285;50.894;5.462;2022-08-21T02:19:41;0.50;;;0.50;;
14400;SDS011;7285;50.894;5.462;2022-08-21T02:22:08;0.57;;;0.57;;
14400;SDS011;7285;50.894;5.462;2022-08-21T02:24:36;0.60;;;0.60;;
14400;SDS011;7285;50.894;5.462;2022-08-21T02:27:15;0.53;;;0.53;;
14400;SDS011;7285;50.894;5.462;2022-08-21T02:29:42;0.60;;;0.60;;
14400;SDS011;7285;50.894;5.462;2022-08-21T02:32:10;0.60;;;0.60;;
14400;SDS011;7285;50.894;5.462;2022-08-21T02:34:37;0.60;;;0.60;;
14400;SDS011;7285;50.894;5.462;2022-08-21T02:37:05;0.50;;;0.50;;
14400;SDS011;7285;50.894;5.462;2022-08-21T02:42:57;0.60;;;0.60;;
14400;SDS011;7285;50.894;5.462;2022-08-21T02:45:25;0.50;;;0.50;;
14400;SDS011;7285;50.894;5.462;2022-08-21T02:47:55;0.60;;;0.60;;
14400;SDS011;7285;50.894;5.462;2022-08-21T02:50:28;0.60;;;0.60;;
14400;SDS011;7285;50.894;5.462;2022-08-21T02:52:57;1.23;;;0.87;;
14400;SDS011;7285;50.894;5.462;2022-08-21T02:55:25;0.60;;;0.60;;
14400;SDS011;7285;50.894;5.462;2022-08-21T02:57:54;1.53;;;1.43;;
14400;SDS011;7285;50.894;5.462;2022-08-21T03:00:23;0.50;;;0.50;;
14400;SDS011;7285;50.894;5.462;2022-08-21T03:02:51;0.60;;;0.60;;
14400;SDS011;7285;50.894;5.462;2022-08-21T03:05:24;0.60;;;0.60;;
14400;SDS011;7285;50.894;5.462;2022-08-21T03:07:53;0.60;;;0.60;;
14400;SDS011;7285;50.894;5.462;2022-08-21T03:10:20;0.67;;;0.67;;
14400;SDS011;7285;50.894;5.462;2022-08-21T03:12:47;0.57;;;0.57;;
14400;SDS011;7285;50.894;5.462;2022-08-21T03:15:16;0.60;;;0.60;;
14400;SDS011;7285;50.894;5.462;2022-08-21T03:17:46;0.60;;;0.60;;
14400;SDS011;7285;50.894;5.462;2022-08-21T03:20:15;0.50;;;0.50;;
14400;SDS011;7285;50.894;5.462;2022-08-21T03:22:45;0.70;;;0.70;;
14400;SDS011;7285;50.894;5.462;2022-08-21T03:25:14;0.60;;;0.60;;
14400;SDS011;7285;50.894;5.462;2022-08-21T03:27:41;0.60;;;0.60;;
14400;SDS011;7285;50.894;5.462;2022-08-21T03:30:09;0.60;;;0.60;;
14400;SDS011;7285;50.894;5.462;2022-08-21T03:32:38;0.50;;;0.50;;
14400;SDS011;7285;50.894;5.462;2022-08-21T03:35:06;0.50;;;0.50;;
14400;SDS011;7285;50.894;5.462;2022-08-21T03:37:34;0.70;;;0.70;;
14400;SDS011;7285;50.894;5.462;2022-08-21T03:40:03;0.40;;;0.40;;
14400;SDS011;7285;50.894;5.462;2022-08-21T03:42:30;0.97;;;0.97;;
14400;SDS011;7285;50.894;5.462;2022-08-21T03:44:57;0.60;;;0.60;;
14400;SDS011;7285;50.894;5.462;2022-08-21T03:47:24;0.60;;;0.60;;
14400;SDS011;7285;50.894;5.462;2022-08-21T03:49:51;0.50;;;0.50;;
14400;SDS011;7285;50.894;5.462;2022-08-21T03:52:19;0.50;;;0.50;;
14400;SDS011;7285;50.894;5.462;2022-08-21T03:54:46;0.60;;;0.60;;
14400;SDS011;7285;50.894;5.462;2022-08-21T03:57:22;0.50;;;0.50;;
14400;SDS011;7285;50.894;5.462;2022-08-21T03:59:49;0.60;;;0.60;;
14400;SDS011;7285;50.894;5.462;2022-08-21T04:02:17;0.60;;;0.60;;
14400;SDS011;7285;50.894;5.462;2022-08-21T04:04:46;0.57;;;0.57;;
14400;SDS011;7285;50.894;5.462;2022-08-21T04:07:13;0.43;;;0.43;;
14400;SDS011;7285;50.894;5.462;2022-08-21T04:09:40;0.60;;;0.60;;
14400;SDS011;7285;50.894;5.462;2022-08-21T04:12:07;0.60;;;0.60;;
14400;SDS011;7285;50.894;5.462;2022-08-21T04:14:36;0.60;;;0.60;;
14400;SDS011;7285;50.894;5.462;2022-08-21T04:17:03;0.67;;;0.67;;
14400;SDS011;7285;50.894;5.462;2022-08-21T04:19:30;0.60;;;0.60;;
14400;SDS011;7285;50.894;5.462;2022-08-21T04:21:57;0.50;;;0.50;;
14400;SDS011;7285;50.894;5.462;2022-08-21T04:24:24;0.70;;;0.70;;
14400;SDS011;7285;50.894;5.462;2022-08-21T04:26:51;0.60;;;0.60;;
14400;SDS011;7285;50.894;5.462;2022-08-21T04:29:18;0.60;;;0.60;;
14400;SDS011;7285;50.894;5.462;2022-08-21T04:31:46;0.70;;;0.70;;
14400;SDS011;7285;50.894;5.462;2022-08-21T04:34:14;0.50;;;0.50;;
14400;SDS011;7285;50.894;5.462;2022-08-21T04:36:41;0.63;;;0.63;;
14400;SDS011;7285;50.894;5.462;2022-08-21T04:39:08;0.60;;;0.60;;
14400;SDS011;7285;50.894;5.462;2022-08-21T04:41:35;0.70;;;0.70;;
14400;SDS011;7285;50.894;5.462;2022-08-21T04:44:03;0.60;;;0.60;;
14400;SDS011;7285;50.894;5.462;2022-08-21T04:46:33;0.60;;;0.60;;
14400;SDS011;7285;50.894;5.462;2022-08-21T04:49:02;0.60;;;0.60;;
14400;SDS011;7285;50.894;5.462;2022-08-21T04:51:29;0.50;;;0.50;;
14400;SDS011;7285;50.894;5.462;2022-08-21T04:54:00;0.60;;;0.60;;
14400;SDS011;7285;50.894;5.462;2022-08-21T04:56:34;0.53;;;0.53;;
14400;SDS011;7285;50.894;5.462;2022-08-21T04:59:04;0.50;;;0.50;;
14400;SDS011;7285;50.894;5.462;2022-08-21T05:01:36;0.50;;;0.50;;
14400;SDS011;7285;50.894;5.462;2022-08-21T05:04:06;0.60;;;0.60;;
14400;SDS011;7285;50.894;5.462;2022-08-21T05:06:36;0.50;;;0.50;;
14400;SDS011;7285;50.894;5.462;2022-08-21T05:09:07;0.60;;;0.60;;
14400;SDS011;7285;50.894;5.462;2022-08-21T05:11:35;0.60;;;0.60;;
14400;SDS011;7285;50.894;5.462;2022-08-21T05:14:03;0.60;;;0.60;;
14400;SDS011;7285;50.894;5.462;2022-08-21T05:16:30;0.60;;;0.60;;
14400;SDS011;7285;50.894;5.462;2022-08-21T05:18:57;0.60;;;0.60;;
14400;SDS011;7285;50.894;5.462;2022-08-21T05:21:25;0.60;;;0.60;;
14400;SDS011;7285;50.894;5.462;2022-08-21T05:23:52;0.60;;;0.60;;
14400;SDS011;7285;50.894;5.462;2022-08-21T05:26:19;0.60;;;0.60;;
14400;SDS011;7285;50.894;5.462;2022-08-21T05:28:46;0.57;;;0.57;;
14400;SDS011;7285;50.894;5.462;2022-08-21T05:31:13;0.57;;;0.57;;
14400;SDS011;7285;50.894;5.462;2022-08-21T05:33:40;0.60;;;0.60;;
14400;SDS011;7285;50.894;5.462;2022-08-21T05:36:07;0.50;;;0.50;;
14400;SDS011;7285;50.894;5.462;2022-08-21T05:38:36;0.50;;;0.50;;
14400;SDS011;7285;50.894;5.462;2022-08-21T05:41:03;0.57;;;0.57;;
14400;SDS011;7285;50.894;5.462;2022-08-21T05:43:45;0.60;;;0.60;;
14400;SDS011;7285;50.894;5.462;2022-08-21T05:46:12;0.60;;;0.60;;
14400;SDS011;7285;50.894;5.462;2022-08-21T05:48:54;0.60;;;0.60;;
14400;SDS011;7285;50.894;5.462;2022-08-21T05:51:21;0.50;;;0.50;;
14400;SDS011;7285;50.894;5.462;2022-08-21T05:53:50;0.50;;;0.50;;
14400;SDS011;7285;50.894;5.462;2022-08-21T05:56:17;0.50;;;0.50;;
14400;SDS011;7285;50.894;5.462;2022-08-21T05:58:43;0.50;;;0.50;;
14400;SDS011;7285;50.894;5.462;2022-08-21T06:01:10;0.50;;;0.50;;
14400;SDS011;7285;50.894;5.462;2022-08-21T06:03:38;0.40;;;0.40;;
14400;SDS011;7285;50.894;5.462;2022-08-21T06:06:08;0.50;;;0.50;;
14400;SDS011;7285;50.894;5.462;2022-08-21T06:08:35;0.50;;;0.50;;
14400;SDS011;7285;50.894;5.462;2022-08-21T06:11:04;0.50;;;0.50;;
14400;SDS011;7285;50.894;5.462;2022-08-21T06:13:32;0.50;;;0.50;;
14400;SDS011;7285;50.894;5.462;2022-08-21T06:18:44;0.50;;;0.50;;
14400;SDS011;7285;50.894;5.462;2022-08-21T06:21:11;0.50;;;0.50;;
14400;SDS011;7285;50.894;5.462;2022-08-21T06:23:41;0.40;;;0.40;;
14400;SDS011;7285;50.894;5.462;2022-08-21T06:29:15;0.50;;;0.50;;
14400;SDS011;7285;50.894;5.462;2022-08-21T06:31:43;0.40;;;0.40;;
14400;SDS011;7285;50.894;5.462;2022-08-21T06:34:10;0.50;;;0.50;;
14400;SDS011;7285;50.894;5.462;2022-08-21T06:36:40;0.50;;;0.50;;
14400;SDS011;7285;50.894;5.462;2022-08-21T06:39:07;0.40;;;0.40;;
14400;SDS011;7285;50.894;5.462;2022-08-21T06:41:40;0.37;;;0.37;;
14400;SDS011;7285;50.894;5.462;2022-08-21T06:44:08;0.40;;;0.40;;
14400;SDS011;7285;50.894;5.462;2022-08-21T06:46:35;0.40;;;0.40;;
14400;SDS011;7285;50.894;5.462;2022-08-21T06:49:02;0.40;;;0.40;;
14400;SDS011;7285;50.894;5.462;2022-08-21T06:51:29;0.40;;;0.40;;
14400;SDS011;7285;50.894;5.462;2022-08-21T06:53:56;0.30;;;0.30;;
14400;SDS011;7285;50.894;5.462;2022-08-21T06:59:09;0.40;;;0.40;;
14400;SDS011;7285;50.894;5.462;2022-08-21T07:01:36;0.30;;;0.30;;
14400;SDS011;7285;50.894;5.462;2022-08-21T07:04:05;0.30;;;0.30;;
14400;SDS011;7285;50.894;5.462;2022-08-21T07:06:33;0.30;;;0.30;;
14400;SDS011;7285;50.894;5.462;2022-08-21T07:11:31;0.30;;;0.30;;
14400;SDS011;7285;50.894;5.462;2022-08-21T07:13:58;0.40;;;0.40;;
14400;SDS011;7285;50.894;5.462;2022-08-21T07:16:33;0.30;;;0.30;;
14400;SDS011;7285;50.894;5.462;2022-08-21T07:19:01;0.23;;;0.23;;
14400;SDS011;7285;50.894;5.462;2022-08-21T07:21:28;0.20;;;0.20;;
14400;SDS011;7285;50.894;5.462;2022-08-21T07:23:55;0.27;;;0.27;;
14400;SDS011;7285;50.894;5.462;2022-08-21T07:26:23;0.30;;;0.30;;
14400;SDS011;7285;50.894;5.462;2022-08-21T07:28:51;0.20;;;0.20;;
14400;SDS011;7285;50.894;5.462;2022-08-21T07:31:19;0.20;;;0.20;;
14400;SDS011;7285;50.894;5.462;2022-08-21T07:33:49;0.30;;;0.30;;
14400;SDS011;7285;50.894;5.462;2022-08-21T07:36:16;0.27;;;0.27;;
14400;SDS011;7285;50.894;5.462;2022-08-21T07:38:43;0.20;;;0.20;;
14400;SDS011;7285;50.894;5.462;2022-08-21T07:41:12;0.30;;;0.30;;
14400;SDS011;7285;50.894;5.462;2022-08-21T07:43:42;0.20;;;0.20;;
14400;SDS011;7285;50.894;5.462;2022-08-21T07:46:09;0.30;;;0.30;;
14400;SDS011;7285;50.894;5.462;2022-08-21T07:48:36;0.20;;;0.20;;
14400;SDS011;7285;50.894;5.462;2022-08-21T07:51:07;0.20;;;0.20;;
14400;SDS011;7285;50.894;5.462;2022-08-21T07:53:35;0.20;;;0.20;;
14400;SDS011;7285;50.894;5.462;2022-08-21T07:56:04;0.20;;;0.20;;
14400;SDS011;7285;50.894;5.462;2022-08-21T07:58:33;0.70;;;0.70;;
14400;SDS011;7285;50.894;5.462;2022-08-21T08:01:00;0.20;;;0.20;;
14400;SDS011;7285;50.894;5.462;2022-08-21T08:03:27;0.30;;;0.30;;
14400;SDS011;7285;50.894;5.462;2022-08-21T08:05:54;0.30;;;0.30;;
14400;SDS011;7285;50.894;5.462;2022-08-21T08:08:22;0.20;;;0.20;;
14400;SDS011;7285;50.894;5.462;2022-08-21T08:10:49;0.30;;;0.30;;
14400;SDS011;7285;50.894;5.462;2022-08-21T08:13:17;0.30;;;0.30;;
14400;SDS011;7285;50.894;5.462;2022-08-21T08:15:44;0.20;;;0.20;;
14400;SDS011;7285;50.894;5.462;2022-08-21T08:18:11;0.30;;;0.30;;
14400;SDS011;7285;50.894;5.462;2022-08-21T08:20:38;0.30;;;0.30;;
14400;SDS011;7285;50.894;5.462;2022-08-21T08:23:06;0.30;;;0.30;;
14400;SDS011;7285;50.894;5.462;2022-08-21T08:25:34;0.30;;;0.30;;
14400;SDS011;7285;50.894;5.462;2022-08-21T08:28:01;0.20;;;0.20;;
14400;SDS011;7285;50.894;5.462;2022-08-21T08:30:29;0.30;;;0.30;;
14400;SDS011;7285;50.894;5.462;2022-08-21T08:32:56;0.30;;;0.30;;
14400;SDS011;7285;50.894;5.462;2022-08-21T08:35:24;0.87;;;0.87;;
14400;SDS011;7285;50.894;5.462;2022-08-21T08:37:53;0.30;;;0.30;;
14400;SDS011;7285;50.894;5.462;2022-08-21T08:40:22;0.50;;;0.50;;
14400;SDS011;7285;50.894;5.462;2022-08-21T08:42:56;0.30;;;0.30;;
14400;SDS011;7285;50.894;5.462;2022-08-21T08:45:23;0.30;;;0.30;;
14400;SDS011;7285;50.894;5.462;2022-08-21T08:47:52;0.40;;;0.40;;
14400;SDS011;7285;50.894;5.462;2022-08-21T08:50:24;0.20;;;0.20;;
14400;SDS011;7285;50.894;5.462;2022-08-21T08:52:55;0.30;;;0.30;;
14400;SDS011;7285;50.894;5.462;2022-08-21T08:55:26;0.20;;;0.20;;
14400;SDS011;7285;50.894;5.462;2022-08-21T08:58:00;0.30;;;0.30;;
14400;SDS011;7285;50.894;5.462;2022-08-21T09:00:28;0.20;;;0.20;;
14400;SDS011;7285;50.894;5.462;2022-08-21T09:02:57;0.57;;;0.57;;
14400;SDS011;7285;50.894;5.462;2022-08-21T09:05:28;0.33;;;0.33;;
14400;SDS011;7285;50.894;5.462;2022-08-21T09:08:09;0.20;;;0.20;;
14400;SDS011;7285;50.894;5.462;2022-08-21T09:10:54;0.20;;;0.20;;
14400;SDS011;7285;50.894;5.462;2022-08-21T09:13:34;0.20;;;0.20;;
14400;SDS011;7285;50.894;5.462;2022-08-21T09:16:11;0.10;;;0.10;;
14400;SDS011;7285;50.894;5.462;2022-08-21T09:18:47;0.20;;;0.20;;
14400;SDS011;7285;50.894;5.462;2022-08-21T09:21:26;0.27;;;0.27;;
14400;SDS011;7285;50.894;5.462;2022-08-21T09:23:57;0.63;;;0.63;;
14400;SDS011;7285;50.894;5.462;2022-08-21T09:26:30;0.10;;;0.10;;
14400;SDS011;7285;50.894;5.462;2022-08-21T09:29:02;0.20;;;0.20;;
14400;SDS011;7285;50.894;5.462;2022-08-21T09:31:32;0.13;;;0.13;;
14400;SDS011;7285;50.894;5.462;2022-08-21T09:34:03;0.43;;;0.43;;
14400;SDS011;7285;50.894;5.462;2022-08-21T09:36:35;0.10;;;0.10;;
14400;SDS011;7285;50.894;5.462;2022-08-21T09:39:04;0.10;;;0.10;;
14400;SDS011;7285;50.894;5.462;2022-08-21T09:41:32;0.37;;;0.37;;
14400;SDS011;7285;50.894;5.462;2022-08-21T09:44:03;0.10;;;0.10;;
14400;SDS011;7285;50.894;5.462;2022-08-21T09:46:30;0.20;;;0.20;;
14400;SDS011;7285;50.894;5.462;2022-08-21T09:48:58;0.63;;;0.63;;
14400;SDS011;7285;50.894;5.462;2022-08-21T09:51:27;0.20;;;0.20;;
14400;SDS011;7285;50.894;5.462;2022-08-21T09:53:56;0.20;;;0.20;;
14400;SDS011;7285;50.894;5.462;2022-08-21T09:56:37;0.10;;;0.10;;
14400;SDS011;7285;50.894;5.462;2022-08-21T09:59:27;0.10;;;0.10;;
14400;SDS011;7285;50.894;5.462;2022-08-21T10:01:57;0.30;;;0.30;;
14400;SDS011;7285;50.894;5.462;2022-08-21T10:04:27;0.50;;;0.50;;
14400;SDS011;7285;50.894;5.462;2022-08-21T10:07:05;0.20;;;0.20;;
14400;SDS011;7285;50.894;5.462;2022-08-21T10:09:33;0.20;;;0.20;;
14400;SDS011;7285;50.894;5.462;2022-08-21T10:12:12;0.20;;;0.20;;
14400;SDS011;7285;50.894;5.462;2022-08-21T10:14:51;0.10;;;0.10;;
14400;SDS011;7285;50.894;5.462;2022-08-21T10:17:25;0.20;;;0.20;;
14400;SDS011;7285;50.894;5.462;2022-08-21T10:20:01;0.20;;;0.20;;
14400;SDS011;7285;50.894;5.462;2022-08-21T10:22:34;0.10;;;0.10;;
14400;SDS011;7285;50.894;5.462;2022-08-21T10:25:14;0.20;;;0.20;;
14400;SDS011;7285;50.894;5.462;2022-08-21T10:27:49;0.10;;;0.10;;
14400;SDS011;7285;50.894;5.462;2022-08-21T10:30:29;0.10;;;0.10;;
14400;SDS011;7285;50.894;5.462;2022-08-21T10:33:06;0.30;;;0.30;;
14400;SDS011;7285;50.894;5.462;2022-08-21T10:35:48;0.10;;;0.10;;
14400;SDS011;7285;50.894;5.462;2022-08-21T10:38:32;0.20;;;0.20;;
14400;SDS011;7285;50.894;5.462;2022-08-21T10:41:12;0.10;;;0.10;;
14400;SDS011;7285;50.894;5.462;2022-08-21T10:43:45;3.40;;;0.85;;
14400;SDS011;7285;50.894;5.462;2022-08-21T10:46:24;0.57;;;0.45;;
14400;SDS011;7285;50.894;5.462;2022-08-21T10:49:09;0.10;;;0.10;;
14400;SDS011;7285;50.894;5.462;2022-08-21T10:51:52;0.20;;;0.20;;
14400;SDS011;7285;50.894;5.462;2022-08-21T10:54:29;0.10;;;0.10;;
14400;SDS011;7285;50.894;5.462;2022-08-21T10:57:04;0.15;;;0.15;;
14400;SDS011;7285;50.894;5.462;2022-08-21T10:59:38;0.10;;;0.10;;
14400;SDS011;7285;50.894;5.462;2022-08-21T11:02:13;0.10;;;0.10;;
14400;SDS011;7285;50.894;5.462;2022-08-21T11:04:48;0.10;;;0.10;;
14400;SDS011;7285;50.894;5.462;2022-08-21T11:07:21;0.98;;;0.65;;
14400;SDS011;7285;50.894;5.462;2022-08-21T11:09:54;0.10;;;0.10;;
14400;SDS011;7285;50.894;5.462;2022-08-21T11:12:24;0.10;;;0.10;;
14400;SDS011;7285;50.894;5.462;2022-08-21T11:15:02;0.10;;;0.10;;
14400;SDS011;7285;50.894;5.462;2022-08-21T11:17:39;0.20;;;0.20;;
14400;SDS011;7285;50.894;5.462;2022-08-21T11:20:12;0.10;;;0.10;;
14400;SDS011;7285;50.894;5.462;2022-08-21T11:22:44;3.92;;;0.40;;
14400;SDS011;7285;50.894;5.462;2022-08-21T11:25:17;0.10;;;0.10;;
14400;SDS011;7285;50.894;5.462;2022-08-21T11:27:49;0.10;;;0.10;;
14400;SDS011;7285;50.894;5.462;2022-08-21T11:30:20;0.20;;;0.20;;
14400;SDS011;7285;50.894;5.462;2022-08-21T11:32:57;0.10;;;0.10;;
14400;SDS011;7285;50.894;5.462;2022-08-21T11:35:35;0.13;;;0.13;;
14400;SDS011;7285;50.894;5.462;2022-08-21T11:38:13;0.70;;;0.40;;
14400;SDS011;7285;50.894;5.462;2022-08-21T11:40:58;0.10;;;0.10;;
14400;SDS011;7285;50.894;5.462;2022-08-21T11:43:34;0.10;;;0.10;;
14400;SDS011;7285;50.894;5.462;2022-08-21T11:46:11;0.10;;;0.10;;
14400;SDS011;7285;50.894;5.462;2022-08-21T11:48:53;0.03;;;0.03;;
14400;SDS011;7285;50.894;5.462;2022-08-21T11:51:33;0.13;;;0.13;;
14400;SDS011;7285;50.894;5.462;2022-08-21T11:54:05;0.10;;;0.10;;
14400;SDS011;7285;50.894;5.462;2022-08-21T11:56:51;0.25;;;0.25;;
14400;SDS011;7285;50.894;5.462;2022-08-21T11:59:23;0.20;;;0.20;;
14400;SDS011;7285;50.894;5.462;2022-08-21T12:01:58;0.00;;;0.00;;
14400;SDS011;7285;50.894;5.462;2022-08-21T12:04:28;0.10;;;0.10;;
14400;SDS011;7285;50.894;5.462;2022-08-21T12:07:08;0.20;;;0.20;;
14400;SDS011;7285;50.894;5.462;2022-08-21T12:09:37;0.40;;;0.40;;
14400;SDS011;7285;50.894;5.462;2022-08-21T12:12:05;0.10;;;0.10;;
14400;SDS011;7285;50.894;5.462;2022-08-21T12:14:37;0.10;;;0.10;;
14400;SDS011;7285;50.894;5.462;2022-08-21T12:17:07;0.10;;;0.10;;
14400;SDS011;7285;50.894;5.462;2022-08-21T12:19:43;0.20;;;0.20;;
14400;SDS011;7285;50.894;5.462;2022-08-21T12:22:11;0.10;;;0.10;;
14400;SDS011;7285;50.894;5.462;2022-08-21T12:24:41;0.10;;;0.10;;
14400;SDS011;7285;50.894;5.462;2022-08-21T12:27:13;0.85;;;0.77;;
14400;SDS011;7285;50.894;5.462;2022-08-21T12:29:51;0.10;;;0.10;;
14400;SDS011;7285;50.894;5.462;2022-08-21T12:32:23;0.10;;;0.10;;
14400;SDS011;7285;50.894;5.462;2022-08-21T12:34:55;0.13;;;0.13;;
14400;SDS011;7285;50.894;5.462;2022-08-21T12:37:28;0.10;;;0.10;;
14400;SDS011;7285;50.894;5.462;2022-08-21T12:40:09;0.10;;;0.10;;
14400;SDS011;7285;50.894;5.462;2022-08-21T12:42:41;0.10;;;0.10;;
14400;SDS011;7285;50.894;5.462;2022-08-21T12:45:14;0.15;;;0.15;;
14400;SDS011;7285;50.894;5.462;2022-08-21T12:47:45;0.10;;;0.10;;
14400;SDS011;7285;50.894;5.462;2022-08-21T12:50:17;0.10;;;0.10;;
14400;SDS011;7285;50.894;5.462;2022-08-21T12:52:48;0.00;;;0.00;;
14400;SDS011;7285;50.894;5.462;2022-08-21T12:55:26;0.30;;;0.30;;
14400;SDS011;7285;50.894;5.462;2022-08-21T12:57:54;0.10;;;0.10;;
14400;SDS011;7285;50.894;5.462;2022-08-21T13:00:22;0.10;;;0.10;;
14400;SDS011;7285;50.894;5.462;2022-08-21T13:02:51;0.00;;;0.00;;
14400;SDS011;7285;50.894;5.462;2022-08-21T13:08:10;0.10;;;0.10;;
14400;SDS011;7285;50.894;5.462;2022-08-21T13:10:39;0.10;;;0.10;;
14400;SDS011;7285;50.894;5.462;2022-08-21T13:13:08;0.10;;;0.10;;
14400;SDS011;7285;50.894;5.462;2022-08-21T13:15:40;0.10;;;0.10;;
14400;SDS011;7285;50.894;5.462;2022-08-21T13:18:07;0.38;;;0.38;;
14400;SDS011;7285;50.894;5.462;2022-08-21T13:20:46;0.10;;;0.10;;
14400;SDS011;7285;50.894;5.462;2022-08-21T13:23:17;0.10;;;0.10;;
14400;SDS011;7285;50.894;5.462;2022-08-21T13:25:47;0.10;;;0.10;;
14400;SDS011;7285;50.894;5.462;2022-08-21T13:28:14;0.10;;;0.10;;
14400;SDS011;7285;50.894;5.462;2022-08-21T13:30:43;0.00;;;0.00;;
14400;SDS011;7285;50.894;5.462;2022-08-21T13:33:12;0.10;;;0.10;;
14400;SDS011;7285;50.894;5.462;2022-08-21T13:35:51;0.00;;;0.00;;
14400;SDS011;7285;50.894;5.462;2022-08-21T13:38:28;0.10;;;0.10;;
14400;SDS011;7285;50.894;5.462;2022-08-21T13:40:58;0.10;;;0.10;;
14400;SDS011;7285;50.894;5.462;2022-08-21T13:43:31;0.10;;;0.10;;
14400;SDS011;7285;50.894;5.462;2022-08-21T13:45:58;0.00;;;0.00;;
14400;SDS011;7285;50.894;5.462;2022-08-21T13:48:27;0.10;;;0.10;;
14400;SDS011;7285;50.894;5.462;2022-08-21T13:50:58;0.08;;;0.08;;
14400;SDS011;7285;50.894;5.462;2022-08-21T13:53:28;0.00;;;0.00;;
14400;SDS011;7285;50.894;5.462;2022-08-21T13:55:56;0.05;;;0.05;;
14400;SDS011;7285;50.894;5.462;2022-08-21T13:58:24;0.08;;;0.08;;
14400;SDS011;7285;50.894;5.462;2022-08-21T14:00:53;0.10;;;0.10;;
14400;SDS011;7285;50.894;5.462;2022-08-21T14:03:27;0.13;;;0.10;;
14400;SDS011;7285;50.894;5.462;2022-08-21T14:05:59;0.03;;;0.03;;
14400;SDS011;7285;50.894;5.462;2022-08-21T14:08:28;0.10;;;0.10;;
14400;SDS011;7285;50.894;5.462;2022-08-21T14:10:58;0.00;;;0.00;;
14400;SDS011;7285;50.894;5.462;2022-08-21T14:13:32;0.10;;;0.10;;
14400;SDS011;7285;50.894;5.462;2022-08-21T14:16:08;0.00;;;0.00;;
14400;SDS011;7285;50.894;5.462;2022-08-21T14:18:46;0.00;;;0.00;;
14400;SDS011;7285;50.894;5.462;2022-08-21T14:21:28;0.00;;;0.00;;
14400;SDS011;7285;50.894;5.462;2022-08-21T14:24:05;0.00;;;0.00;;
14400;SDS011;7285;50.894;5.462;2022-08-21T14:26:34;0.00;;;0.00;;
14400;SDS011;7285;50.894;5.462;2022-08-21T14:29:11;0.10;;;0.10;;
14400;SDS011;7285;50.894;5.462;2022-08-21T14:31:40;0.10;;;0.10;;
14400;SDS011;7285;50.894;5.462;2022-08-21T14:34:08;0.00;;;0.00;;
14400;SDS011;7285;50.894;5.462;2022-08-21T14:36:40;0.00;;;0.00;;
14400;SDS011;7285;50.894;5.462;2022-08-21T14:39:06;0.00;;;0.00;;
14400;SDS011;7285;50.894;5.462;2022-08-21T14:41:34;0.00;;;0.00;;
14400;SDS011;7285;50.894;5.462;2022-08-21T14:44:02;0.00;;;0.00;;
14400;SDS011;7285;50.894;5.462;2022-08-21T14:46:30;0.10;;;0.10;;
14400;SDS011;7285;50.894;5.462;2022-08-21T14:48:58;0.20;;;0.20;;
14400;SDS011;7285;50.894;5.462;2022-08-21T14:51:25;0.00;;;0.00;;
14400;SDS011;7285;50.894;5.462;2022-08-21T14:53:53;0.10;;;0.10;;
14400;SDS011;7285;50.894;5.462;2022-08-21T14:56:20;0.08;;;0.08;;
14400;SDS011;7285;50.894;5.462;2022-08-21T14:58:48;0.00;;;0.00;;
14400;SDS011;7285;50.894;5.462;2022-08-21T15:01:18;0.10;;;0.10;;
14400;SDS011;7285;50.894;5.462;2022-08-21T15:03:47;0.10;;;0.10;;
14400;SDS011;7285;50.894;5.462;2022-08-21T15:06:14;0.08;;;0.08;;
14400;SDS011;7285;50.894;5.462;2022-08-21T15:08:43;0.20;;;0.20;;
14400;SDS011;7285;50.894;5.462;2022-08-21T15:11:12;0.15;;;0.15;;
14400;SDS011;7285;50.894;5.462;2022-08-21T15:13:42;0.10;;;0.10;;
14400;SDS011;7285;50.894;5.462;2022-08-21T15:16:10;0.15;;;0.15;;
14400;SDS011;7285;50.894;5.462;2022-08-21T15:18:38;0.65;;;0.65;;
14400;SDS011;7285;50.894;5.462;2022-08-21T15:21:07;0.10;;;0.10;;
14400;SDS011;7285;50.894;5.462;2022-08-21T15:23:34;0.10;;;0.10;;
14400;SDS011;7285;50.894;5.462;2022-08-21T15:26:02;0.10;;;0.10;;
14400;SDS011;7285;50.894;5.462;2022-08-21T15:28:30;0.10;;;0.10;;
14400;SDS011;7285;50.894;5.462;2022-08-21T15:30:59;0.45;;;0.45;;
14400;SDS011;7285;50.894;5.462;2022-08-21T15:33:26;0.10;;;0.10;;
14400;SDS011;7285;50.894;5.462;2022-08-21T15:35:53;0.10;;;0.10;;